Archival Weather

Chicago O'Hare International

Chicago, Illinois (KORD)

Report from: Monday, January 23, 2023 11:51 PM CST
Current time: Thursday, July 18, 2024 10:28 PM CDT

Current weather – Weather history – Daily summaries
Weather forecast

Temperature-1.7°C (28.9°F)
Wind chill-6.8°C (19.7°F)
Dew point-5.0°C (23.0°F)
Winds 9 kts (4.6 m/s, 10.4 mph) West (260°)
Visibility10 mi. (16.1 km)
Clouds Ceiling: Overcast 1,500 ft. (457 m)
Altimeter30.09 in.Hg (1019 mB)
Relative humidity78 %
Density altitude-2,209 ft. (-673 m)
Sea-level pressure102.0 kPa (1020 mB, 30.12 in.Hg)
Max temp last 6 hours-1.1°C (30.0°F)
Min temp last 6 hours-2.8°C (27.0°F)
Max temp last 24 hours-1.1°C (30.0°F)
Min temp last 24 hours-6.1°C (21.0°F)
Remarks Automated weather observing station with precipitation discriminator
Pressure rising more quickly
Flight conditions Marginal Visual Meteorological Conditions
Raw dataKORD 240551Z 26009KT 10SM OVC015 M02/M05 A3009 RMK AO2 SLP199 T10171050 11011 21028 410111061 53015
An error has occurred. This application may no longer respond until reloaded. Reload 🗙